Nearby METAR Reports

 

KSJC - San Jose, California, USA
Distance from station: NE 14km
Updated: 27/01/2022 11:53
Clear
Clear
 Wind from calm
Wind: Calm
Temperature: 6°C
Dew Point: 3°C
Humidity: 81%
Barometer: 1022.4 hPa
Clouds: Clear
Visibility: 16 km
2022/01/27 09:53 KSJC 270953Z AUTO 00000KT 10SM CLR 06/03 A3019 RMK AO2 SLP223 T00610028
KNUQ - Moffett Nas/Mtn, California, USA
Distance from station: N 14km
Updated: 27/01/2022 12:15
Clear
Clear
 Wind from calm
Wind: Calm
Temperature: 6°C
Dew Point: 4°C
Humidity: 87%
Barometer: 1022.4 hPa
Clouds: Clear
Visibility: 14 km
2022/01/27 10:15 KNUQ 271015Z AUTO 00000KT 9SM CLR 06/04 A3019 RMK AO2
 
KPAO - Palo Alto, California, USA
Distance from station: NNW 23km
Updated: 27/01/2022 00:47
NOT Current
Haze, Clear
Haze, Clear
 Wind from varies
Wind: varies 9 km/h
Temperature: 16°C
Dew Point: 7°C
Humidity: 55%
Barometer: 1019.6 hPa
Summary: Haze
Clouds: Clear
Visibility: 16 km
2022/01/26 22:47 KPAO 262247Z VRB05KT 10SM HZ SKC 16/07 A3011
KRHV - San Jose/Reid, California, USA
Distance from station: ENE 19km
Updated: 27/01/2022 07:47
NOT Current
Clear
Clear
 Wind from calm
Wind: Calm
Temperature: 9°C
Dew Point: 6°C
Humidity: 82%
Barometer: 1021.7 hPa
Clouds: Clear
Visibility: 16 km
2022/01/27 05:47 KRHV 270547Z 00000KT 10SM SKC 09/06 A3017
 
KOAK - Oakland, California, USA
Distance from station: NNW 50km
Updated: 27/01/2022 11:53
Few Clouds
Few Clouds
 Wind from NE
Wind: NE 6 km/h
Temperature: 7°C
Dew Point: 4°C
Humidity: 81%
Barometer: 1022.7 hPa
Clouds: Few Clouds
Visibility: 16 km
Cloud details: Few Clouds 91 m
2022/01/27 09:53 KOAK 270953Z 05003KT 10SM FEW003 07/04 A3020 RMK AO2 SLP225 T00670044 $
KSQL - San Carlos Airpo, California, USA
Distance from station: NW 34km
Updated: 27/01/2022 12:15
Clear
Clear
 Wind from calm
Wind: Calm
Temperature: 5°C
Dew Point: 4°C
Humidity: 93%
Barometer: 1022.7 hPa
Clouds: Clear
Visibility: 11 km
2022/01/27 10:15 KSQL 271015Z AUTO 00000KT 7SM CLR 05/04 A3020 RMK AO2
 
KSFO - San Francisco, California, USA
Distance from station: NW 49km
Updated: 27/01/2022 11:56
Clear
Clear
 Wind from calm
Wind: Calm
Temperature: 8°C
Dew Point: 6°C
Humidity: 87%
Barometer: 1022.4 hPa
Clouds: Clear
Visibility: 16 km
2022/01/27 09:56 KSFO 270956Z 00000KT 10SM CLR 08/06 A3019 RMK AO2 SLP223 T00780056 $
KE16 - San Martin, California, USA
Distance from station: ESE 43km
Updated: 27/01/2022 12:10
Clear
Clear
 Wind from NNE
Wind: NNE 7 km/h
Temperature: 3°C
Wind Chill: 1°C
Dew Point: 3°C
Humidity: 100%
Barometer: 1023.4 hPa
Clouds: Clear
Visibility: 16 km
2022/01/27 10:10 KE16 271010Z AUTO 02004KT 10SM CLR 03/03 A3022 RMK AO2
 
KWVI - Watsonville, California, USA
Distance from station: SSE 44km
Updated: 27/01/2022 11:53
Clear
Clear
 Wind from NNW
Wind: NNW 7 km/h
Temperature: 4°C
Wind Chill: 2°C
Dew Point: 1°C
Humidity: 81%
Barometer: 1022.4 hPa
Clouds: Clear
Visibility: 16 km
2022/01/27 09:53 KWVI 270953Z AUTO 34004KT 10SM CLR 04/01 A3019 RMK AO2 SLP221 T00390011
KHAF - Half Moon Bay, California, USA
Distance from station: WNW 50km
Updated: 27/01/2022 12:15
Mist, Overcast
Mist, Overcast
 Wind from calm
Wind: Calm
Temperature: 3°C
Dew Point: 3°C
Humidity: 100%
Barometer: 1022 hPa
Summary: Mist
Clouds: Overcast
Visibility: 8 km
Cloud details: Overcast 61 m
2022/01/27 10:15 KHAF 271015Z AUTO 00000KT 5SM BR OVC002 03/03 A3018 RMK AO2
 
KHWD - Hayward, California, USA
Distance from station: N 44km
Updated: 27/01/2022 11:54
Haze, Clear
Haze, Clear
 Wind from ENE
Wind: ENE 11 km/h
Temperature: 8°C
Wind Chill: 6°C
Dew Point: 4°C
Humidity: 76%
Barometer: 1022.4 hPa
Summary: Haze
Clouds: Clear
Visibility: 11 km
2022/01/27 09:54 KHWD 270954Z AUTO 06006KT 7SM HZ CLR 08/04 A3019 RMK AO2 SLP233 T00780044
KLVK - Livermore, California, USA
Distance from station: NNE 51km
Updated: 27/01/2022 11:53
Mist, Clear
Mist, Clear
 Wind from calm
Wind: Calm
Temperature: 3°C
Dew Point: 2°C
Humidity: 93%
Barometer: 1022.7 hPa
Summary: Mist
Clouds: Clear
Visibility: 10 km
2022/01/27 09:53 KLVK 270953Z AUTO 00000KT 6SM BR CLR 03/02 A3020 RMK AO2 SLP227 T00280017